MCF1TR LHSM-LHZA
Flight info
| Callsign | MCF1TR |
|---|---|
| Flight time | 0h 26m |
| Altitude | 2000 |
| Route | DCT |
| Aircraft | DA42/L-SBDGRY/S |
Departure
| Time | 2026-04-16 20:38 |
|---|---|
| Airport | Hévíz–Balaton Airport (LHSM) |
Arrival
| Time | 2026-04-16 21:04 |
|---|---|
| Airport | Zalaegerszeg Andráshida Airfield (LHZA) |
| Time | Latitude | Longitude | Altitude | Speed | Heading |
|---|---|---|---|---|---|
| 2026-04-16 20:28 | 46.69537 | 17.15971 | 392 ft | 0 kts | 12° |
| 2026-04-16 20:34 | 46.69538 | 17.15971 | 400 ft | 0 kts | 6° |
| 2026-04-16 20:34 | 46.69545 | 17.15944 | 400 ft | 0 kts | 289° |
| 2026-04-16 20:34 | 46.69507 | 17.15936 | 400 ft | 15 kts | 168° |
| 2026-04-16 20:34 | 46.69413 | 17.15991 | 400 ft | 5 kts | 170° |
| 2026-04-16 20:35 | 46.69392 | 17.15982 | 400 ft | 10 kts | 226° |
| 2026-04-16 20:35 | 46.69350 | 17.15851 | 400 ft | 16 kts | 246° |
| 2026-04-16 20:35 | 46.69304 | 17.15700 | 395 ft | 18 kts | 244° |
| 2026-04-16 20:35 | 46.69201 | 17.15695 | 395 ft | 17 kts | 165° |
| 2026-04-16 20:36 | 46.69084 | 17.15739 | 393 ft | 18 kts | 165° |
| 2026-04-16 20:36 | 46.68961 | 17.15786 | 393 ft | 18 kts | 164° |
| 2026-04-16 20:36 | 46.68863 | 17.15799 | 394 ft | 6 kts | 78° |
| 2026-04-16 20:36 | 46.68882 | 17.15816 | 393 ft | 0 kts | 343° |
| 2026-04-16 20:37 | 46.68942 | 17.15792 | 393 ft | 36 kts | 346° |
| 2026-04-16 20:37 | 46.69352 | 17.15632 | 432 ft | 76 kts | 345° |
| 2026-04-16 20:37 | 46.69881 | 17.15412 | 704 ft | 83 kts | 345° |
| 2026-04-16 20:37 | 46.70464 | 17.15155 | 925 ft | 99 kts | 349° |
| 2026-04-16 20:38 | 46.71030 | 17.15720 | 1159 ft | 117 kts | 67° |
| 2026-04-16 20:38 | 46.70909 | 17.16860 | 1645 ft | 121 kts | 116° |
| 2026-04-16 20:38 | 46.70202 | 17.17675 | 1887 ft | 139 kts | 156° |
| 2026-04-16 20:38 | 46.69190 | 17.18035 | 1897 ft | 155 kts | 166° |
| 2026-04-16 20:39 | 46.68155 | 17.18361 | 1898 ft | 153 kts | 165° |
| 2026-04-16 20:39 | 46.67091 | 17.18666 | 1839 ft | 156 kts | 166° |
| 2026-04-16 20:39 | 46.66037 | 17.18989 | 1564 ft | 158 kts | 165° |
| 2026-04-16 20:39 | 46.64961 | 17.19076 | 1386 ft | 150 kts | 195° |
| 2026-04-16 20:40 | 46.64182 | 17.18166 | 1089 ft | 147 kts | 249° |
| 2026-04-16 20:40 | 46.64256 | 17.16933 | 1103 ft | 112 kts | 315° |
| 2026-04-16 20:40 | 46.64992 | 17.16572 | 945 ft | 114 kts | 359° |
| 2026-04-16 20:40 | 46.65740 | 17.16505 | 890 ft | 112 kts | 358° |
| 2026-04-16 20:41 | 46.66423 | 17.16415 | 854 ft | 106 kts | 355° |
| 2026-04-16 20:41 | 46.67227 | 17.16210 | 733 ft | 109 kts | 357° |
| 2026-04-16 20:41 | 46.67989 | 17.16118 | 686 ft | 111 kts | 351° |
| 2026-04-16 20:41 | 46.68766 | 17.15971 | 626 ft | 112 kts | 359° |
| 2026-04-16 20:42 | 46.69508 | 17.16003 | 743 ft | 97 kts | 0° |
| 2026-04-16 20:42 | 46.70207 | 17.16013 | 861 ft | 104 kts | 360° |
| 2026-04-16 20:42 | 46.70990 | 17.16010 | 1012 ft | 121 kts | 360° |
| 2026-04-16 20:42 | 46.71881 | 17.16016 | 1129 ft | 133 kts | 0° |
| 2026-04-16 20:43 | 46.72807 | 17.16028 | 1253 ft | 132 kts | 0° |
| 2026-04-16 20:43 | 46.73836 | 17.16021 | 1411 ft | 137 kts | 359° |
| 2026-04-16 20:43 | 46.74700 | 17.16013 | 1507 ft | 138 kts | 0° |
| 2026-04-16 20:43 | 46.75647 | 17.16002 | 1646 ft | 139 kts | 0° |
| 2026-04-16 20:44 | 46.76626 | 17.16000 | 1765 ft | 141 kts | 0° |
| 2026-04-16 20:44 | 46.77628 | 17.16066 | 1889 ft | 142 kts | 15° |
| 2026-04-16 20:44 | 46.78363 | 17.16930 | 2015 ft | 145 kts | 59° |
| 2026-04-16 20:44 | 46.78455 | 17.18390 | 2149 ft | 153 kts | 103° |
| 2026-04-16 20:45 | 46.77793 | 17.19611 | 2282 ft | 160 kts | 146° |
| 2026-04-16 20:45 | 46.76701 | 17.19933 | 2416 ft | 163 kts | 183° |
| 2026-04-16 20:45 | 46.75523 | 17.19775 | 2560 ft | 165 kts | 186° |
| 2026-04-16 20:45 | 46.74353 | 17.19567 | 2688 ft | 165 kts | 187° |
| 2026-04-16 20:46 | 46.73288 | 17.19388 | 2802 ft | 165 kts | 187° |
| 2026-04-16 20:46 | 46.72133 | 17.19200 | 2928 ft | 165 kts | 187° |
| 2026-04-16 20:46 | 46.70859 | 17.18980 | 3003 ft | 167 kts | 187° |
| 2026-04-16 20:46 | 46.69754 | 17.18789 | 2997 ft | 170 kts | 187° |
| 2026-04-16 20:47 | 46.68659 | 17.18604 | 2983 ft | 172 kts | 187° |
| 2026-04-16 20:47 | 46.67550 | 17.18414 | 2899 ft | 160 kts | 187° |
| 2026-04-16 20:47 | 46.66399 | 17.18201 | 2411 ft | 170 kts | 188° |
| 2026-04-16 20:47 | 46.65311 | 17.17860 | 2022 ft | 152 kts | 211° |
| 2026-04-16 20:48 | 46.64934 | 17.16751 | 1836 ft | 113 kts | 294° |
| 2026-04-16 20:48 | 46.65505 | 17.16267 | 1460 ft | 102 kts | 1° |
| 2026-04-16 20:48 | 46.66244 | 17.16345 | 1212 ft | 108 kts | 6° |
| 2026-04-16 20:48 | 46.66998 | 17.16355 | 990 ft | 108 kts | 360° |
| 2026-04-16 20:49 | 46.67783 | 17.16273 | 750 ft | 117 kts | 354° |
| 2026-04-16 20:49 | 46.68589 | 17.16087 | 584 ft | 117 kts | 350° |
| 2026-04-16 20:49 | 46.69383 | 17.15921 | 478 ft | 112 kts | 356° |
| 2026-04-16 20:49 | 46.70088 | 17.15901 | 577 ft | 93 kts | 360° |
| 2026-04-16 20:50 | 46.70718 | 17.15960 | 594 ft | 89 kts | 8° |
| 2026-04-16 20:50 | 46.71340 | 17.16191 | 752 ft | 100 kts | 25° |
| 2026-04-16 20:50 | 46.71789 | 17.17039 | 965 ft | 118 kts | 74° |
| 2026-04-16 20:50 | 46.71858 | 17.18312 | 1159 ft | 136 kts | 100° |
| 2026-04-16 20:51 | 46.71151 | 17.19150 | 1460 ft | 146 kts | 165° |
| 2026-04-16 20:51 | 46.70159 | 17.18754 | 1382 ft | 156 kts | 230° |
| 2026-04-16 20:51 | 46.69819 | 17.17306 | 967 ft | 155 kts | 266° |
| 2026-04-16 20:51 | 46.69727 | 17.15717 | 452 ft | 160 kts | 270° |
| 2026-04-16 20:52 | 46.69532 | 17.14363 | 777 ft | 125 kts | 239° |
| 2026-04-16 20:52 | 46.68736 | 17.13713 | 960 ft | 140 kts | 200° |
| 2026-04-16 20:52 | 46.68178 | 17.12736 | 1296 ft | 123 kts | 279° |
| 2026-04-16 20:52 | 46.68741 | 17.11995 | 1515 ft | 120 kts | 342° |
| 2026-04-16 20:53 | 46.69608 | 17.11739 | 1568 ft | 134 kts | 353° |
| 2026-04-16 20:53 | 46.70594 | 17.11658 | 1482 ft | 149 kts | 7° |
| 2026-04-16 20:53 | 46.71637 | 17.11968 | 1453 ft | 155 kts | 11° |
| 2026-04-16 20:53 | 46.72710 | 17.12100 | 1516 ft | 154 kts | 3° |
| 2026-04-16 20:54 | 46.73795 | 17.12170 | 1504 ft | 161 kts | 4° |
| 2026-04-16 20:54 | 46.74811 | 17.11978 | 1960 ft | 140 kts | 333° |
| 2026-04-16 20:54 | 46.75581 | 17.11053 | 2049 ft | 151 kts | 315° |
| 2026-04-16 20:54 | 46.76245 | 17.09812 | 2102 ft | 159 kts | 311° |
| 2026-04-16 20:55 | 46.77036 | 17.08643 | 2004 ft | 164 kts | 323° |
| 2026-04-16 20:55 | 46.77900 | 17.07645 | 2101 ft | 158 kts | 324° |
| 2026-04-16 20:55 | 46.78746 | 17.06591 | 2099 ft | 160 kts | 318° |
| 2026-04-16 20:55 | 46.79476 | 17.05362 | 2119 ft | 161 kts | 313° |
| 2026-04-16 20:56 | 46.80182 | 17.04096 | 2153 ft | 161 kts | 313° |
| 2026-04-16 20:56 | 46.80898 | 17.02879 | 2287 ft | 154 kts | 315° |
| 2026-04-16 20:56 | 46.81631 | 17.01746 | 2346 ft | 155 kts | 318° |
| 2026-04-16 20:56 | 46.82432 | 17.00696 | 2443 ft | 154 kts | 318° |
| 2026-04-16 20:57 | 46.83097 | 16.99437 | 2426 ft | 161 kts | 305° |
| 2026-04-16 20:57 | 46.83669 | 16.98101 | 2713 ft | 147 kts | 306° |
| 2026-04-16 20:57 | 46.84235 | 16.96822 | 2707 ft | 155 kts | 303° |
| 2026-04-16 20:57 | 46.84760 | 16.95424 | 2694 ft | 159 kts | 299° |
| 2026-04-16 20:58 | 46.85230 | 16.93979 | 2782 ft | 158 kts | 299° |
| 2026-04-16 20:58 | 46.85712 | 16.92523 | 2852 ft | 160 kts | 300° |
| 2026-04-16 20:58 | 46.86218 | 16.91084 | 2941 ft | 159 kts | 300° |
| 2026-04-16 20:58 | 46.86713 | 16.89656 | 3109 ft | 154 kts | 299° |
| 2026-04-16 20:59 | 46.87177 | 16.88276 | 3294 ft | 150 kts | 299° |
| 2026-04-16 20:59 | 46.87606 | 16.86892 | 3464 ft | 151 kts | 295° |
| 2026-04-16 20:59 | 46.87953 | 16.85375 | 3415 ft | 164 kts | 291° |
| 2026-04-16 20:59 | 46.88279 | 16.83686 | 3212 ft | 178 kts | 291° |
| 2026-04-16 21:00 | 46.88713 | 16.82008 | 3083 ft | 175 kts | 291° |
| 2026-04-16 21:00 | 46.88852 | 16.80205 | 2642 ft | 184 kts | 272° |
| 2026-04-16 21:00 | 46.88785 | 16.78443 | 2652 ft | 167 kts | 269° |
| 2026-04-16 21:00 | 46.88692 | 16.76759 | 2475 ft | 168 kts | 261° |
| 2026-04-16 21:01 | 46.88013 | 16.75366 | 2120 ft | 178 kts | 210° |
| 2026-04-16 21:01 | 46.86811 | 16.74989 | 1860 ft | 174 kts | 184° |
| 2026-04-16 21:01 | 46.85688 | 16.74917 | 1880 ft | 156 kts | 182° |
| 2026-04-16 21:01 | 46.84627 | 16.75045 | 1749 ft | 152 kts | 149° |
| 2026-04-16 21:02 | 46.84062 | 16.76227 | 1607 ft | 142 kts | 91° |
| 2026-04-16 21:02 | 46.84258 | 16.77504 | 1588 ft | 116 kts | 63° |
| 2026-04-16 21:02 | 46.84606 | 16.78485 | 1474 ft | 114 kts | 52° |
| 2026-04-16 21:03 | 46.85670 | 16.79207 | 1153 ft | 89 kts | 2° |
| 2026-04-16 21:03 | 46.86288 | 16.79244 | 951 ft | 88 kts | 2° |
| 2026-04-16 21:03 | 46.86906 | 16.79273 | 773 ft | 89 kts | 360° |
| 2026-04-16 21:03 | 46.87499 | 16.79227 | 647 ft | 81 kts | 355° |
| 2026-04-16 21:04 | 46.88001 | 16.79157 | 633 ft | 56 kts | 357° |
| 2026-04-16 21:04 | 46.88237 | 16.79150 | 625 ft | 8 kts | 355° |
| 2026-04-16 21:04 | 46.88259 | 16.79147 | 627 ft | 0 kts | 353° |